createdAt,value
2018-08-09T00:00:36.178Z,98699.00
2018-08-09T00:03:05.366Z,98697.00
2018-08-09T00:05:34.115Z,98698.00
2018-08-09T00:08:02.823Z,98699.00
2018-08-09T00:10:31.623Z,98696.00
2018-08-09T00:13:00.313Z,98699.00
2018-08-09T00:15:29.003Z,98701.00
2018-08-09T00:17:57.701Z,98702.00
2018-08-09T00:20:26.378Z,98699.00
2018-08-09T00:22:55.078Z,98700.00
2018-08-09T00:25:23.796Z,98700.00
2018-08-09T00:27:52.484Z,98696.00
2018-08-09T00:30:21.171Z,98690.00
2018-08-09T00:32:49.961Z,98692.00
2018-08-09T00:35:18.622Z,98685.00
2018-08-09T00:37:47.276Z,98683.00
2018-08-09T00:40:15.995Z,98681.00
2018-08-09T00:42:44.684Z,98692.00
2018-08-09T00:45:13.376Z,98697.00
2018-08-09T00:47:42.147Z,98695.00
2018-08-09T00:50:10.932Z,98686.00
2018-08-09T00:52:43.883Z,98693.00
2018-08-09T00:55:12.643Z,98695.00
2018-08-09T00:57:43.323Z,98693.00
2018-08-09T01:00:11.993Z,98688.00
2018-08-09T01:02:40.655Z,98688.00
2018-08-09T01:05:09.355Z,98685.00
2018-08-09T01:07:38.051Z,98681.00
2018-08-09T01:10:06.823Z,98677.00
2018-08-09T01:12:35.496Z,98673.00
2018-08-09T01:15:04.416Z,98673.00
2018-08-09T01:17:33.146Z,98681.00
2018-08-09T01:20:02.091Z,98684.00
2018-08-09T01:22:30.794Z,98680.00
2018-08-09T01:24:59.477Z,98681.00
2018-08-09T01:27:28.189Z,98678.00
2018-08-09T01:29:56.911Z,98677.00
2018-08-09T01:32:25.604Z,98556.00
2018-08-09T01:34:54.342Z,98681.00
2018-08-09T01:37:22.971Z,98683.00
2018-08-09T01:39:51.638Z,98683.00
2018-08-09T01:42:36.980Z,98566.00
2018-08-09T01:45:05.773Z,98685.00
2018-08-09T01:47:34.610Z,98681.00
2018-08-09T01:50:03.397Z,98680.00
2018-08-09T01:52:32.136Z,98682.00
2018-08-09T01:55:00.863Z,98677.00
2018-08-09T01:57:29.563Z,98682.00
2018-08-09T01:59:58.253Z,98679.00
2018-08-09T02:02:27.086Z,98684.00
2018-08-09T02:04:55.909Z,98689.00
2018-08-09T02:07:24.556Z,98696.00
2018-08-09T02:09:53.186Z,98689.00
2018-08-09T02:12:21.863Z,98681.00
2018-08-09T02:14:50.455Z,98682.00
2018-08-09T02:17:19.143Z,98688.00
2018-08-09T02:19:47.915Z,98692.00
2018-08-09T02:22:16.688Z,98692.00
2018-08-09T02:24:45.323Z,98685.00
2018-08-09T02:27:14.002Z,98684.00
2018-08-09T02:29:42.705Z,98688.00
2018-08-09T02:32:11.423Z,98692.00
2018-08-09T02:34:40.149Z,98691.00
2018-08-09T02:37:08.937Z,98691.00
2018-08-09T02:39:37.649Z,98693.00
2018-08-09T02:42:06.361Z,98692.00
2018-08-09T02:44:35.049Z,98691.00
2018-08-09T02:47:03.713Z,98685.00
2018-08-09T02:49:32.445Z,98680.00
2018-08-09T02:52:01.133Z,98677.00
2018-08-09T02:54:29.703Z,98675.00
2018-08-09T02:56:58.373Z,98671.00
2018-08-09T02:59:27.316Z,98672.00
2018-08-09T03:01:55.983Z,98676.00
2018-08-09T03:04:24.624Z,98670.00
2018-08-09T03:06:53.318Z,98672.00
2018-08-09T03:09:21.981Z,98678.00
2018-08-09T03:11:50.620Z,98682.00
2018-08-09T03:14:20.072Z,98685.00
2018-08-09T03:16:48.831Z,98684.00
2018-08-09T03:19:17.463Z,98682.00
2018-08-09T03:21:46.173Z,98676.00
2018-08-09T03:24:14.936Z,98683.00
2018-08-09T03:26:43.568Z,98692.00
2018-08-09T03:29:12.244Z,98694.00
2018-08-09T03:31:41.303Z,98694.00
2018-08-09T03:34:10.026Z,98690.00
2018-08-09T03:36:38.687Z,98632.00
2018-08-09T03:39:10.095Z,98694.00
2018-08-09T03:41:38.923Z,98697.00
2018-08-09T03:44:07.728Z,98693.00
2018-08-09T03:46:36.695Z,98696.00
2018-08-09T03:49:05.452Z,98695.00
2018-08-09T03:51:34.163Z,98698.00
2018-08-09T03:54:02.828Z,98703.00
2018-08-09T03:56:31.517Z,98707.00
2018-08-09T03:59:00.203Z,98710.00
2018-08-09T04:01:28.900Z,98712.00
2018-08-09T04:03:57.530Z,98717.00
2018-08-09T04:06:26.175Z,98719.00
2018-08-09T04:08:54.836Z,98716.00
2018-08-09T04:11:23.503Z,98714.00
2018-08-09T04:13:52.204Z,98715.00
2018-08-09T04:16:20.836Z,98716.00
2018-08-09T04:18:49.538Z,98716.00
2018-08-09T04:21:18.318Z,98709.00
2018-08-09T04:23:47.010Z,98713.00
2018-08-09T04:26:15.728Z,98709.00
2018-08-09T04:28:44.502Z,98709.00
2018-08-09T04:31:13.188Z,98703.00
2018-08-09T04:33:41.888Z,98707.00
2018-08-09T04:36:10.618Z,98710.00
2018-08-09T04:38:39.335Z,98713.00
2018-08-09T04:41:08.023Z,98714.00
2018-08-09T04:43:36.670Z,98717.00
2018-08-09T04:46:05.711Z,98715.00
2018-08-09T04:48:34.410Z,98716.00
2018-08-09T04:51:03.191Z,98713.00
2018-08-09T04:53:31.876Z,98718.00
2018-08-09T04:56:00.580Z,98719.00
2018-08-09T04:58:29.425Z,98726.00
2018-08-09T05:00:58.096Z,98724.00
2018-08-09T05:03:26.800Z,98728.00
2018-08-09T05:05:55.585Z,98735.00
2018-08-09T05:08:24.303Z,98741.00
2018-08-09T05:10:52.973Z,98741.00
2018-08-09T05:13:21.654Z,98740.00
2018-08-09T05:15:50.381Z,98734.00
2018-08-09T05:18:19.020Z,98741.00
2018-08-09T05:20:48.666Z,98735.00
2018-08-09T05:23:17.404Z,98738.00
2018-08-09T05:25:46.195Z,98738.00
2018-08-09T05:28:14.908Z,98741.00
2018-08-09T05:30:43.601Z,98748.00
2018-08-09T05:33:12.301Z,98749.00
2018-08-09T05:35:41.091Z,98749.00
2018-08-09T05:38:09.808Z,98754.00
2018-08-09T05:40:38.521Z,98758.00
2018-08-09T05:43:07.363Z,98762.00
2018-08-09T05:45:36.024Z,98760.00
2018-08-09T05:48:05.678Z,98766.00
2018-08-09T05:50:34.496Z,98768.00
2018-08-09T05:53:03.251Z,98770.00
2018-08-09T05:55:32.014Z,98765.00
2018-08-09T05:58:00.680Z,98767.00
2018-08-09T06:00:29.346Z,98765.00
2018-08-09T06:02:58.051Z,98765.00
2018-08-09T06:05:26.735Z,98760.00
2018-08-09T06:07:55.525Z,98766.00
2018-08-09T06:10:24.185Z,98766.00
2018-08-09T06:12:52.870Z,98769.00
2018-08-09T06:15:21.583Z,98773.00
2018-08-09T06:17:50.312Z,98771.00
2018-08-09T06:20:19.289Z,98765.00
2018-08-09T06:22:47.948Z,98765.00
2018-08-09T06:25:16.668Z,98766.00
2018-08-09T06:27:45.572Z,98767.00
2018-08-09T06:30:14.370Z,98768.00
2018-08-09T06:32:43.116Z,98770.00
2018-08-09T06:35:11.753Z,98771.00
2018-08-09T06:37:40.388Z,98769.00
2018-08-09T06:40:12.522Z,98762.00
2018-08-09T06:42:42.430Z,98765.00
2018-08-09T06:45:11.218Z,98766.00
2018-08-09T06:47:40.527Z,98765.00
2018-08-09T06:50:10.561Z,98764.00
2018-08-09T06:52:39.312Z,98769.00
2018-08-09T06:55:08.008Z,98765.00
2018-08-09T06:57:36.710Z,98766.00
2018-08-09T07:00:09.996Z,98756.00
2018-08-09T07:02:38.700Z,98756.00
2018-08-09T07:05:07.674Z,98755.00
2018-08-09T07:07:36.430Z,98753.00
2018-08-09T07:10:07.330Z,98760.00
2018-08-09T07:12:36.050Z,98762.00
2018-08-09T07:15:08.307Z,98762.00
2018-08-09T07:17:37.027Z,98753.00
2018-08-09T07:20:07.000Z,98755.00
2018-08-09T07:22:36.011Z,98758.00
2018-08-09T07:25:05.448Z,98755.00
2018-08-09T07:27:34.570Z,98753.00
2018-08-09T07:30:04.482Z,98747.00
2018-08-09T07:32:33.227Z,98753.00
2018-08-09T07:35:03.003Z,98753.00
2018-08-09T07:37:31.703Z,98752.00
2018-08-09T07:40:00.338Z,98753.00
2018-08-09T07:42:29.017Z,98752.00
2018-08-09T07:44:58.643Z,98750.00
2018-08-09T07:47:27.337Z,98745.00
2018-08-09T07:49:56.024Z,98744.00
2018-08-09T07:52:24.672Z,98746.00
2018-08-09T07:54:53.313Z,98752.00
2018-08-09T07:57:21.970Z,98756.00
2018-08-09T07:59:50.597Z,98757.00
2018-08-09T08:02:19.250Z,98756.00
2018-08-09T08:04:47.917Z,98756.00
2018-08-09T08:07:17.531Z,98759.00
2018-08-09T08:09:46.153Z,98754.00
2018-08-09T08:12:14.766Z,98756.00
2018-08-09T08:14:43.540Z,98752.00
2018-08-09T08:17:12.331Z,98742.00
2018-08-09T08:19:41.014Z,98749.00
2018-08-09T08:22:09.815Z,98742.00
2018-08-09T08:24:38.473Z,98738.00
2018-08-09T08:27:07.225Z,98747.00
2018-08-09T08:29:35.938Z,98748.00
2018-08-09T08:32:04.906Z,98752.00
2018-08-09T08:34:34.255Z,98756.00
2018-08-09T08:37:02.930Z,98756.00
2018-08-09T08:39:31.559Z,98753.00
2018-08-09T08:42:00.268Z,98749.00
2018-08-09T08:44:29.033Z,98752.00
2018-08-09T08:46:57.771Z,98752.00
2018-08-09T08:49:26.458Z,98750.00
2018-08-09T08:51:55.236Z,98749.00
2018-08-09T08:54:23.985Z,98747.00
2018-08-09T08:56:52.741Z,98749.00
2018-08-09T08:59:21.424Z,98747.00
2018-08-09T09:01:50.154Z,98749.00
2018-08-09T09:04:18.803Z,98749.00
2018-08-09T09:06:47.650Z,98743.00
2018-08-09T09:09:16.339Z,98744.00
2018-08-09T09:11:45.061Z,98747.00
2018-08-09T09:14:13.807Z,98747.00
2018-08-09T09:16:42.479Z,98749.00
2018-08-09T09:19:11.149Z,98752.00
2018-08-09T09:21:39.778Z,98754.00
2018-08-09T09:24:08.536Z,98751.00
2018-08-09T09:26:37.377Z,98747.00
2018-08-09T09:29:06.098Z,98753.00
2018-08-09T09:31:35.221Z,98749.00
2018-08-09T09:34:04.060Z,98745.00
2018-08-09T09:36:32.693Z,98741.00
2018-08-09T09:39:01.547Z,98744.00
2018-08-09T09:41:30.202Z,98743.00
2018-08-09T09:43:58.886Z,98745.00
2018-08-09T09:46:27.601Z,98743.00
2018-08-09T09:48:56.308Z,98740.00
2018-08-09T09:51:25.013Z,98740.00
2018-08-09T09:53:53.706Z,98740.00
2018-08-09T09:56:22.405Z,98736.00
2018-08-09T09:58:51.090Z,98737.00
2018-08-09T10:01:25.583Z,98729.00
2018-08-09T10:03:54.934Z,98731.00
2018-08-09T10:06:23.854Z,98731.00
2018-08-09T10:08:52.949Z,98731.00
2018-08-09T10:11:21.764Z,98732.00
2018-08-09T10:13:50.532Z,98733.00
2018-08-09T10:16:19.258Z,98732.00
2018-08-09T10:18:48.033Z,98725.00
2018-08-09T10:21:16.699Z,98727.00
2018-08-09T10:23:45.413Z,98725.00
2018-08-09T10:26:14.131Z,98727.00
2018-08-09T10:28:42.875Z,98729.00
2018-08-09T10:31:11.501Z,98728.00
2018-08-09T10:33:40.201Z,98725.00
2018-08-09T10:36:08.948Z,98724.00
2018-08-09T10:38:37.598Z,98722.00
2018-08-09T10:41:06.364Z,98724.00
2018-08-09T10:43:35.009Z,98723.00
2018-08-09T10:46:03.690Z,98724.00
2018-08-09T10:48:32.350Z,98724.00
2018-08-09T10:51:01.331Z,98724.00
2018-08-09T10:53:29.962Z,98722.00
2018-08-09T10:55:58.609Z,98721.00
2018-08-09T10:58:28.137Z,98721.00
2018-08-09T11:00:56.879Z,98716.00
2018-08-09T11:03:25.549Z,98714.00
2018-08-09T11:05:54.354Z,98712.00
2018-08-09T11:08:23.004Z,98713.00
2018-08-09T11:10:51.772Z,98713.00
2018-08-09T11:13:20.521Z,98707.00
2018-08-09T11:15:49.503Z,98705.00
2018-08-09T11:18:18.706Z,98698.00
2018-08-09T11:20:47.471Z,98697.00
2018-08-09T11:23:16.173Z,98701.00
2018-08-09T11:25:44.836Z,98696.00
2018-08-09T11:28:14.461Z,98690.00
2018-08-09T11:30:43.209Z,98693.00
2018-08-09T11:33:11.934Z,98692.00
2018-08-09T11:35:40.753Z,98694.00
2018-08-09T11:38:09.483Z,98691.00
2018-08-09T11:40:38.673Z,98692.00
2018-08-09T11:43:07.475Z,98687.00
2018-08-09T11:45:36.187Z,98687.00
2018-08-09T11:48:05.080Z,98689.00
2018-08-09T11:50:33.868Z,98682.00
2018-08-09T11:53:03.096Z,98680.00
2018-08-09T11:55:32.454Z,98674.00
2018-08-09T11:58:01.609Z,98676.00
2018-08-09T12:00:31.454Z,98680.00
2018-08-09T12:03:00.161Z,98672.00
2018-08-09T12:05:28.982Z,98666.00
2018-08-09T12:07:57.690Z,98671.00
2018-08-09T12:10:26.331Z,98669.00
2018-08-09T12:12:55.049Z,98656.00
2018-08-09T12:15:23.814Z,98655.00
2018-08-09T12:17:52.683Z,98645.00
2018-08-09T12:20:21.541Z,98650.00
2018-08-09T12:22:50.701Z,98650.00
2018-08-09T12:25:19.534Z,98648.00
2018-08-09T12:27:48.233Z,98654.00
2018-08-09T12:30:17.215Z,98649.00
2018-08-09T12:32:46.196Z,98650.00
2018-08-09T12:35:16.059Z,98652.00
2018-08-09T12:37:44.837Z,98658.00
2018-08-09T12:40:14.749Z,98661.00
2018-08-09T12:42:43.444Z,98659.00
2018-08-09T12:45:12.961Z,98654.00
2018-08-09T12:47:41.757Z,98658.00
2018-08-09T12:50:12.610Z,98656.00
2018-08-09T12:52:42.490Z,98655.00
2018-08-09T12:55:12.541Z,98650.00
2018-08-09T12:57:41.369Z,98645.00
2018-08-09T13:00:12.938Z,98656.00
2018-08-09T13:02:42.152Z,98654.00
2018-08-09T13:05:12.190Z,98655.00
2018-08-09T13:07:42.229Z,98652.00
2018-08-09T13:10:13.746Z,98659.00
2018-08-09T13:12:43.191Z,98656.00
2018-08-09T13:15:14.086Z,98655.00
2018-08-09T13:17:48.429Z,98655.00
2018-08-09T13:20:19.738Z,98653.00
2018-08-09T13:22:50.302Z,98647.00
2018-08-09T13:25:19.280Z,98644.00
2018-08-09T13:27:49.214Z,98602.00
2018-08-09T13:30:18.398Z,98628.00
2018-08-09T13:32:47.253Z,98626.00
2018-08-09T13:35:16.933Z,98624.00
2018-08-09T13:37:45.838Z,98621.00
2018-08-09T13:40:17.705Z,98623.00
2018-08-09T13:42:47.153Z,98619.00
2018-08-09T13:45:17.557Z,98622.00
2018-08-09T13:47:46.406Z,98623.00
2018-08-09T13:50:15.249Z,98626.00
2018-08-09T13:52:44.268Z,98624.00
2018-08-09T13:55:14.594Z,98622.00
2018-08-09T13:57:44.777Z,98622.00
2018-08-09T14:00:14.311Z,98621.00
2018-08-09T14:02:45.315Z,98621.00
2018-08-09T14:05:14.143Z,98613.00
2018-08-09T14:07:43.487Z,98608.00
2018-08-09T14:10:14.284Z,98609.00
2018-08-09T14:12:43.097Z,98607.00
2018-08-09T14:15:14.524Z,98600.00
2018-08-09T14:17:43.277Z,98595.00
2018-08-09T14:20:15.273Z,98594.00
2018-08-09T14:22:44.242Z,98586.00
2018-08-09T14:25:13.519Z,98588.00
2018-08-09T14:27:42.467Z,98589.00
2018-08-09T14:30:14.093Z,98587.00
2018-08-09T14:32:44.040Z,98579.00
2018-08-09T14:35:14.765Z,98578.00
2018-08-09T14:37:44.441Z,98577.00
2018-08-09T14:40:14.923Z,98587.00
2018-08-09T14:42:45.671Z,98583.00
2018-08-09T14:45:16.218Z,98579.00
2018-08-09T14:47:45.158Z,98578.00
2018-08-09T14:50:14.044Z,98571.00
2018-08-09T14:52:42.992Z,98566.00
2018-08-09T14:55:12.864Z,98569.00
2018-08-09T14:57:41.960Z,98577.00
2018-08-09T15:00:19.646Z,98578.00
2018-08-09T15:02:48.809Z,98582.00
2018-08-09T15:05:18.490Z,98580.00
2018-08-09T15:07:47.952Z,98584.00
2018-08-09T15:10:17.610Z,98584.00
2018-08-09T15:12:46.576Z,98585.00
2018-08-09T15:15:15.330Z,98589.00
2018-08-09T15:17:44.762Z,98608.00
2018-08-09T15:20:14.042Z,98606.00
2018-08-09T15:22:43.021Z,98607.00
2018-08-09T15:25:12.211Z,98605.00
2018-08-09T15:27:41.006Z,98606.00
2018-08-09T15:30:15.188Z,98607.00
2018-08-09T15:32:43.969Z,98606.00
2018-08-09T15:35:12.889Z,98604.00
2018-08-09T15:37:42.029Z,98603.00
2018-08-09T15:40:11.793Z,98604.00
2018-08-09T15:42:40.620Z,98610.00
2018-08-09T15:45:12.314Z,98599.00
2018-08-09T15:47:41.529Z,98599.00
2018-08-09T15:50:13.574Z,98598.00
2018-08-09T15:52:42.541Z,98604.00
2018-08-09T15:55:12.062Z,98602.00
2018-08-09T15:57:40.852Z,98602.00
2018-08-09T16:00:15.902Z,98602.00
2018-08-09T16:02:44.968Z,98600.00
2018-08-09T16:05:13.774Z,98600.00
2018-08-09T16:07:42.804Z,98589.00
2018-08-09T16:10:13.773Z,98596.00
2018-08-09T16:12:42.806Z,98588.00
2018-08-09T16:15:14.619Z,98587.00
2018-08-09T16:17:44.354Z,98584.00
2018-08-09T16:20:13.151Z,98586.00
2018-08-09T16:22:42.747Z,98582.00
2018-08-09T16:25:14.851Z,98582.00
2018-08-09T16:27:44.197Z,98577.00
2018-08-09T16:30:21.621Z,98571.00
2018-08-09T16:32:50.555Z,98575.00
2018-08-09T16:35:19.511Z,98570.00
2018-08-09T16:37:48.611Z,98574.00
2018-08-09T16:40:25.702Z,98570.00
2018-08-09T16:42:54.801Z,98574.00
2018-08-09T16:45:25.277Z,98582.00
2018-08-09T16:47:54.894Z,98581.00
2018-08-09T16:50:25.477Z,98590.00
2018-08-09T16:52:54.781Z,98596.00
2018-08-09T16:55:24.556Z,98601.00
2018-08-09T16:57:53.677Z,98603.00
2018-08-09T17:00:24.033Z,98614.00
2018-08-09T17:02:54.771Z,98620.00
2018-08-09T17:05:27.301Z,98621.00
2018-08-09T17:07:56.468Z,98632.00
2018-08-09T17:10:25.896Z,98638.00
2018-08-09T17:12:54.726Z,98644.00
2018-08-09T17:15:26.708Z,98645.00
2018-08-09T17:17:56.391Z,98646.00
2018-08-09T17:20:28.159Z,98656.00
2018-08-09T17:22:57.361Z,98652.00
2018-08-09T17:25:27.850Z,98653.00
2018-08-09T17:27:56.734Z,98656.00
2018-08-09T17:30:26.794Z,98658.00
2018-08-09T17:32:56.708Z,98656.00
2018-08-09T17:35:25.608Z,98656.00
2018-08-09T17:37:54.911Z,98661.00
2018-08-09T17:40:27.581Z,98661.00
2018-08-09T17:42:57.179Z,98654.00
2018-08-09T17:45:29.243Z,98653.00
2018-08-09T17:47:58.321Z,98651.00
2018-08-09T17:50:28.126Z,98654.00
2018-08-09T17:52:59.454Z,98658.00
2018-08-09T17:55:28.938Z,98663.00
2018-08-09T17:57:57.758Z,98663.00
2018-08-09T18:00:28.971Z,98660.00
2018-08-09T18:02:57.851Z,98665.00
2018-08-09T18:05:26.653Z,98668.00
2018-08-09T18:07:56.341Z,98673.00
2018-08-09T18:10:28.464Z,98680.00
2018-08-09T18:12:57.239Z,98684.00
2018-08-09T18:15:27.633Z,98684.00
2018-08-09T18:17:56.915Z,98686.00
2018-08-09T18:20:30.411Z,98686.00
2018-08-09T18:22:59.521Z,98686.00
2018-08-09T18:25:28.206Z,98685.00
2018-08-09T18:27:57.151Z,98688.00
2018-08-09T18:30:25.839Z,98700.00
2018-08-09T18:32:54.655Z,98696.00
2018-08-09T18:35:23.404Z,98697.00
2018-08-09T18:37:52.172Z,98703.00
2018-08-09T18:40:23.879Z,98710.00
2018-08-09T18:42:52.956Z,98713.00
2018-08-09T18:45:22.313Z,98718.00
2018-08-09T18:47:51.124Z,98728.00
2018-08-09T18:50:21.583Z,98727.00
2018-08-09T18:52:50.424Z,98729.00
2018-08-09T18:55:19.916Z,98727.00
2018-08-09T18:57:48.951Z,98731.00
2018-08-09T19:00:19.818Z,98734.00
2018-08-09T19:02:49.203Z,98737.00
2018-08-09T19:05:18.249Z,98739.00
2018-08-09T19:07:47.276Z,98743.00
2018-08-09T19:10:27.192Z,98746.00
2018-08-09T19:12:56.121Z,98747.00
2018-08-09T19:15:25.687Z,98750.00
2018-08-09T19:17:54.631Z,98753.00
2018-08-09T19:20:29.157Z,98762.00
2018-08-09T19:22:59.325Z,98769.00
2018-08-09T19:25:28.203Z,98769.00
2018-08-09T19:27:57.195Z,98768.00
2018-08-09T19:30:28.090Z,98770.00
2018-08-09T19:32:58.101Z,98774.00
2018-08-09T19:35:26.909Z,98774.00
2018-08-09T19:37:56.311Z,98775.00
2018-08-09T19:40:29.822Z,98783.00
2018-08-09T19:42:59.401Z,98784.00
2018-08-09T19:45:29.033Z,98780.00
2018-08-09T19:47:58.382Z,98785.00
2018-08-09T19:50:27.985Z,98782.00
2018-08-09T19:52:57.187Z,98788.00
2018-08-09T19:55:26.875Z,98794.00
2018-08-09T19:57:57.151Z,98798.00
2018-08-09T20:00:28.481Z,98804.00
2018-08-09T20:02:58.151Z,98800.00
2018-08-09T20:05:27.969Z,98797.00
2018-08-09T20:07:58.025Z,98796.00
2018-08-09T20:10:27.105Z,98804.00
2018-08-09T20:12:56.094Z,98802.00
2018-08-09T20:15:25.051Z,98804.00
2018-08-09T20:17:54.064Z,98810.00
2018-08-09T20:20:25.490Z,98809.00
2018-08-09T20:22:54.448Z,98813.00
2018-08-09T20:25:24.239Z,98818.00
2018-08-09T20:27:54.179Z,98826.00
2018-08-09T20:30:23.059Z,98831.00
2018-08-09T20:32:52.824Z,98837.00
2018-08-09T20:35:24.134Z,98835.00
2018-08-09T20:37:53.360Z,98835.00
2018-08-09T20:40:23.014Z,98836.00
2018-08-09T20:42:53.195Z,98837.00
2018-08-09T20:45:23.757Z,98844.00
2018-08-09T20:47:53.168Z,98841.00
2018-08-09T20:50:24.799Z,98842.00
2018-08-09T20:52:53.675Z,98848.00
2018-08-09T20:55:23.145Z,98849.00
2018-08-09T20:57:52.850Z,98853.00
2018-08-09T21:00:24.566Z,98856.00
2018-08-09T21:02:54.825Z,98861.00
2018-08-09T21:05:33.382Z,98859.00
2018-08-09T21:08:02.487Z,98865.00
2018-08-09T21:10:31.563Z,98871.00
2018-08-09T21:13:00.682Z,98871.00
2018-08-09T21:15:29.843Z,98872.00
2018-08-09T21:17:59.798Z,98878.00
2018-08-09T21:20:29.064Z,98881.00
2018-08-09T21:22:58.012Z,98876.00
2018-08-09T21:25:28.570Z,98879.00
2018-08-09T21:27:57.532Z,98883.00
2018-08-09T21:30:27.941Z,98888.00
2018-08-09T21:32:57.734Z,98884.00
2018-08-09T21:35:26.807Z,98891.00
2018-08-09T21:37:55.727Z,98896.00
2018-08-09T21:40:25.004Z,98897.00
2018-08-09T21:42:54.019Z,98890.00
2018-08-09T21:45:23.013Z,98890.00
2018-08-09T21:47:51.922Z,98888.00
2018-08-09T21:50:21.765Z,98888.00
2018-08-09T21:52:51.123Z,98897.00
2018-08-09T21:55:20.063Z,98905.00
2018-08-09T21:57:48.855Z,98919.00
2018-08-09T22:00:38.594Z,98923.00
2018-08-09T22:03:07.472Z,98921.00
2018-08-09T22:05:41.631Z,98928.00
2018-08-09T22:08:15.938Z,98931.00
2018-08-09T22:10:50.261Z,98927.00
2018-08-09T22:13:24.549Z,98922.00
2018-08-09T22:15:58.846Z,98928.00
2018-08-09T22:18:33.324Z,98931.00
2018-08-09T22:21:08.159Z,98924.00
2018-08-09T22:23:38.463Z,98922.00
2018-08-09T22:26:08.702Z,98922.00
2018-08-09T22:28:38.336Z,98933.00
2018-08-09T22:31:07.280Z,98929.00
2018-08-09T22:33:36.120Z,98931.00
2018-08-09T22:36:05.855Z,98930.00
2018-08-09T22:38:34.718Z,98928.00
2018-08-09T22:41:03.815Z,98934.00
2018-08-09T22:43:33.195Z,98939.00
2018-08-09T22:46:02.027Z,98941.00
2018-08-09T22:48:32.165Z,98938.00
2018-08-09T22:51:03.578Z,98942.00
2018-08-09T22:53:33.088Z,98943.00
2018-08-09T22:56:03.603Z,98939.00
2018-08-09T22:58:32.351Z,98941.00
2018-08-09T23:01:01.688Z,98938.00
2018-08-09T23:03:30.474Z,98938.00
2018-08-09T23:06:00.312Z,98937.00
2018-08-09T23:08:29.106Z,98937.00
2018-08-09T23:10:57.945Z,98936.00
2018-08-09T23:13:26.689Z,98932.00
2018-08-09T23:15:55.451Z,98930.00
2018-08-09T23:18:24.163Z,98926.00
2018-08-09T23:20:52.866Z,98922.00
2018-08-09T23:23:21.623Z,98919.00
2018-08-09T23:25:50.416Z,98924.00
2018-08-09T23:28:19.203Z,98923.00
2018-08-09T23:30:47.923Z,98925.00
2018-08-09T23:33:22.576Z,98922.00
2018-08-09T23:35:51.540Z,98918.00
2018-08-09T23:38:20.359Z,98910.00
2018-08-09T23:40:49.054Z,98913.00
2018-08-09T23:43:17.791Z,98919.00
2018-08-09T23:45:46.980Z,98918.00
2018-08-09T23:48:15.836Z,98914.00
2018-08-09T23:50:44.646Z,98913.00
2018-08-09T23:53:13.453Z,98904.00
2018-08-09T23:55:42.700Z,98902.00
2018-08-09T23:58:11.456Z,98909.00
